• Join FlightAware (Why Join?)
  • Login
  • US Flag 
07:02AM EDT


 

Airport Tracker/Info


-or-


 

Live Flight TrackerFlight Track Log ✈ UAL4588 ✈ 07-Apr-2013 ✈ KGRR - KEWR

Flight Track Log - Related Links

Times and Time Zones

All times are in EDT time to prevent confusion due to time zone crossing. See the UAL4588 flight status page for this flight to view local times or setup timezone preferences in your user account.

Time Position Orientation Groundspeed Altitude Reporting Facility
EDT Latitude Longitude Course Direction KTS MPH feet Rate Location/Type
06:27PM 42.8586 -85.5592 107° East 175 201 35,000  Level Chicago Center
06:28PM 42.8147 -85.5244 150° Southeast 222 255 4,300 -13,680 Descending Chicago Center
06:29PM 42.7739 -85.4133 117° Southeast 283 326 6,800 2,520 Climbing Chicago Center
06:30PM 42.7740 -85.1198 105° East  Level FlightAware Approximate
06:31PM 42.7462 -84.9837 107° East  Level FlightAware Approximate
06:31PM 42.7511 -85.3011 105° East 302 348 9,600  Level Chicago Center
06:32PM 42.7152 -84.8489 107° East  Level FlightAware Approximate
06:32PM 42.7297 -85.1850 104° East 313 360 11,700  Level Chicago Center
06:33PM 42.6846 -84.7140 107° East  Level FlightAware Approximate
06:33PM 42.7039 -85.0525 105° East 353 406 13,000  Level Chicago Center
06:34PM 42.6781 -84.9139 104° East 373 429 14,900 1,740 Climbing Chicago Center
06:35PM 42.6428 -84.7464 106° East 384 442 16,600 1,380 Climbing Chicago Center
06:36PM 42.6219 -84.5936 100° East 409 471 17,800 1,140 Climbing Chicago Center
06:36PM 42.6078 -84.5161 104° East 402 463 18,500 1,380 Climbing Cleveland Center
06:37PM 42.5900 -84.3597 99° East 408 470 20,000 1,500 Climbing Cleveland Center
06:38PM 42.5700 -84.2006 100° East 420 483 21,500 1,500 Climbing Cleveland Center
06:39PM 42.5500 -84.0389 99° East 425 489 23,000 1,440 Climbing Cleveland Center
06:40PM 42.5317 -83.8856 99° East 430 495 24,400 1,380 Climbing Cleveland Center
06:41PM 42.5092 -83.7239 101° East 430 495 25,800 1,260 Climbing Cleveland Center
06:42PM 42.4867 -83.5481 100° East 430 495 27,000 1,200 Climbing Cleveland Center
06:43PM 42.4678 -83.3867 99° East 430 495 28,200 1,140 Climbing Cleveland Center
06:44PM 42.4444 -83.2253 101° East 430 495 29,300 1,080 Climbing Cleveland Center
06:45PM 42.4231 -83.0583 100° East 430 495 30,400 1,020 Climbing Cleveland Center
06:46PM 42.3994 -82.8917 101° East 442 509 31,400 960 Climbing Cleveland Center
06:47PM 42.3758 -82.7164 100° East 452 520 32,400 1,080 Climbing Cleveland Center
06:48PM 42.3517 -82.5414 101° East 463 533 33,600 1,140 Climbing Cleveland Center
06:49PM 42.3275 -82.3639 100° East 475 547 34,700 660 Climbing Cleveland Center
06:50PM 42.3011 -82.1861 101° East 475 547 35,000 120 Climbing Cleveland Center
06:51PM 42.2744 -81.9947 101° East 499 574 35,000  Level Cleveland Center
06:52PM 42.2472 -81.8089 101° East 499 574 35,000  Level Cleveland Center
06:53PM 42.2219 -81.6431 102° East 508 585 35,000  Level Cleveland Center
06:54PM 42.1964 -81.4575 100° East 513 590 35,000  Level Cleveland Center
06:55PM 42.1683 -81.2694 101° East 502 578 35,000  Level Cleveland Center
06:56PM 42.1403 -81.0872 102° East 501 577 35,000  Level Cleveland Center
06:57PM 42.1117 -80.8967 101° East 507 583 35,000  Level Cleveland Center
06:58PM 42.0786 -80.6950 102° East 507 583 35,000  Level Cleveland Center
06:59PM 42.0517 -80.5161 101° East 502 578 35,000  Level Cleveland Center
07:00PM 42.0244 -80.3372 102° East 496 571 35,000  Level Cleveland Center
07:01PM 41.9842 -80.1642 107° East 484 557 35,000  Level Cleveland Center
07:02PM 41.9458 -79.9886 106° East 484 557 35,000  Level Cleveland Center
07:03PM 41.9117 -79.8131 105° East 483 556 35,000  Level Cleveland Center
07:04PM 41.8769 -79.6378 105° East 490 564 35,000  Level Cleveland Center
07:05PM 41.8356 -79.4572 107° East 495 570 35,000  Level Cleveland Center
07:06PM 41.8006 -79.2825 105° East 495 570 35,000  Level Cleveland Center
07:07PM 41.7672 -79.1244 106° East 488 562 35,000  Level Cleveland Center
07:08PM 41.7294 -78.9472 106° East 488 562 35,000  Level Cleveland Center
07:09PM 41.6847 -78.7481 107° East 493 567 35,000  Level Cleveland Center
07:11PM 41.6225 -78.4581 106° East 493 567 35,000  Level New York Center
07:12PM 41.5836 -78.2872 107° East 488 562 35,000 -780 Level New York Center
07:13PM 41.5525 -78.1506 107° East 488 562 33,500 -2,040 Descending New York Center
07:14PM 41.5139 -77.9633 105° East 481 554 31,000 -1,260 Descending New York Center
07:15PM 41.4886 -77.7944 101° East 469 540 31,000  Level New York Center
07:16PM 41.4633 -77.6200 101° East 469 540 31,000  Level New York Center
07:17PM 41.4378 -77.4458 101° East 469 540 31,000  Level New York Center
07:18PM 41.4072 -77.2492 102° East 480 552 31,000  Level New York Center
07:19PM 41.3811 -77.0725 101° East 485 558 31,000 -60 Level New York Center
07:20PM 41.3550 -76.8986 101° East 485 558 30,900 -1,320 Descending New York Center
07:21PM 41.3242 -76.7244 103° East 480 552 28,500 -2,820 Descending New York Center
07:22PM 41.2783 -76.5547 110° East 480 552 25,400 -2,700 Descending New York Center
07:23PM 41.2322 -76.3908 110° East 485 558 23,100 -2,340 Descending New York Center
07:24PM 41.1933 -76.2442 109° East 478 550 20,700 -2,460 Descending New York Center
07:25PM 41.1492 -76.0669 108° East 467 537 18,200 -2,280 Descending New York Center
07:26PM 41.1094 -75.9317 111° Southeast 446 513 16,200 -1,680 Descending New York Center
07:27PM 41.0700 -75.7800 109° East 436 502 15,000 -1,380 Descending New York Center
07:28PM 41.0244 -75.6200 111° Southeast 431 496 13,500 -1,020 Descending New York Center
07:29PM 40.9825 -75.4767 111° Southeast 423 487 13,000 -720 Descending New York Center
07:30PM 40.9497 -75.3536 109° East 394 453 12,100 -1,860 Descending New York Center
07:31PM 40.9167 -75.2386 111° Southeast 348 400 9,300 -2,340 Descending New York Center
07:32PM 40.8853 -75.1297 111° Southeast 320 368 7,400 -1,200 Descending New York Center
07:33PM 40.8578 -75.0319 110° East 320 368 7,000 -240 Descending New York Center
07:34PM 40.8447 -74.9242 99° East 310 357 7,000  Level New York Center
07:35PM 40.8592 -74.8069 81° East 306 352 7,000 -300 Level New York Center
07:36PM 40.8781 -74.6844 78° East 311 358 6,400 -540 Descending New York Center
07:37PM 40.8936 -74.5867 78° East 311 358 6,000 -600 Descending New York Center
07:38PM 40.9142 -74.4669 77° East 306 352 5,300 -540 Descending New York Center
07:39PM 40.9336 -74.3747 74° East 296 341 5,000 -360 Descending New York Center
07:39PM 40.9500 -74.3000 74° East 300 345 4,800 -720 Descending New York TRACON
07:40PM 40.9667 -74.2167 75° East 268 308 4,000 -600 Descending New York TRACON
07:41PM 40.9500 -74.1333 105° East 239 275 3,600 -540 Descending New York TRACON
07:42PM 40.9000 -74.0833 143° Southeast 225 259 3,000 -300 Descending New York TRACON
07:43PM 40.8333 -74.0667 169° South 186 214 3,000 -300 Level New York TRACON
07:44PM 40.8000 -74.1000 217° Southwest 168 193 2,400 -600 Descending New York TRACON